SBCJ Informações do Aeroporto

Informações da Pista
Pista 10 Comprimento 6562 ft Largura 148 ft
Elevação 0 ft Limite 0 ft Heading 0
Pista 28 Comprimento 6562 ft Largura 148 ft
Elevação 0 ft Limite 0 ft Heading 0
Frequências do Aeroporto
Tipo AFIS Nome RDO Frequência 131.7 MHZ
Navaids do Aeroporto
Tipo VOR-DME Nome Carajas Frequência 112400 KHZ
Tipo NDB Nome Carajas Frequência 170 KHZ
Informações meteorológicas do aeroporto e NOTAM
ADDS - METARS form results

(1329 UTC 25 June 2019)
Data provider http://aviationweather.gov/metar/data/
 
METAR text: SBCJ 251300Z 11005KT CAVOK 27/18 Q1017
Conditions at: SBCJ (CARAJAS/MARABA , BR) observed 1300 UTC 25 June 2019
Temperature: 27.0°C (81°F)
Dewpoint: 18.0°C (64°F) [RH = 58%]
Pressure (altimeter): 30.03 inches Hg (1017.0 mb)
Winds: from the ESE (110 degrees) at 6 MPH (5 knots; 2.6 m/s)
Visibility: 6 or more miles (10+ km)
Ceiling: ceiling and visibility are OK
Clouds: unknown
Weather: no significant weather observed at this time

Forecast for: SBCJ (CARAJAS/MARABA , BR)
Text: TAF SBCJ 250900Z 2512/2524 12006KT 9999 FEW025 TN25/2512Z TX29/2518Z RMK PHI
Forecast period: 1200 UTC 25 June 2019 to 0000 UTC 26 June 2019
Forecast type: FROM: standard forecast or significant change
Winds: from the ESE (120 degrees) at 7 MPH (6 knots; 3.1 m/s)
Visibility: 6 or more miles 10+ km)
Ceiling: at least 12,000 feet AGL
Clouds: few clouds at 2500 feet AGL
Weather: no significant weather forecast for this period